Time;durP1;ratioP1;P1;durP2;ratioP2;P2;SDS_P1;SDS_P2;PMS_P1;PMS_P2;Temp;Humidity;BMP_temperature;BMP_pressure;BME280_temperature;BME280_humidity;BME280_pressure;Samples;Min_cycle;Max_cycle;Signal;HPM_P1;HPM_P2
2022/08/26 00:00:45;;;;;;;4.10;2.45;;;;;;;;;;7390154;19;20002;-73
2022/08/26 00:03:11;;;;;;;5.43;2.30;;;;;;;;;;7390527;19;20028;-73
2022/08/26 00:05:38;;;;;;;4.50;2.40;;;;;;;;;;7389046;19;20020;-73
2022/08/26 00:08:03;;;;;;;4.47;2.60;;;;;;;;;;7390736;19;20069;-73
2022/08/26 00:10:29;;;;;;;3.70;2.13;;;;;;;;;;7390173;19;19994;-73
2022/08/26 00:12:54;;;;;;;4.15;2.28;;;;;;;;;;7387926;19;20003;-75
2022/08/26 00:15:21;;;;;;;3.58;1.92;;;;;;;;;;7386788;19;19994;-73
2022/08/26 00:17:48;;;;;;;4.10;2.22;;;;;;;;;;7389755;19;20028;-72
2022/08/26 00:20:17;;;;;;;4.22;2.40;;;;;;;;;;7389677;19;20003;-74
2022/08/26 00:22:43;;;;;;;4.22;2.20;;;;;;;;;;7388461;19;20322;-73
2022/08/26 00:25:09;;;;;;;3.47;1.90;;;;;;;;;;7389094;19;19999;-74
2022/08/26 00:27:34;;;;;;;4.40;2.35;;;;;;;;;;7387766;19;20003;-74
2022/08/26 00:30:01;;;;;;;3.85;2.20;;;;;;;;;;7392504;19;20036;-74
2022/08/26 00:32:27;;;;;;;3.58;2.10;;;;;;;;;;7387878;19;19995;-74
2022/08/26 00:34:52;;;;;;;4.05;2.33;;;;;;;;;;7387835;19;20702;-74
2022/08/26 00:37:17;;;;;;;4.20;2.20;;;;;;;;;;7387544;19;19995;-73
2022/08/26 00:39:43;;;;;;;6.00;2.42;;;;;;;;;;7386215;19;20466;-73
2022/08/26 00:42:08;;;;;;;5.28;2.25;;;;;;;;;;7387608;19;20002;-73
2022/08/26 00:44:34;;;;;;;5.47;2.53;;;;;;;;;;7388282;19;20723;-74
2022/08/26 00:47:02;;;;;;;5.85;2.40;;;;;;;;;;7384677;19;19998;-74
2022/08/26 00:49:41;;;;;;;4.28;2.25;;;;;;;;;;7384825;19;20037;-74
2022/08/26 00:52:10;;;;;;;7.00;2.50;;;;;;;;;;7383082;19;20472;-74
2022/08/26 00:54:44;;;;;;;4.32;2.33;;;;;;;;;;7383154;19;19994;-74
2022/08/26 00:57:12;;;;;;;4.45;2.50;;;;;;;;;;7385259;19;19995;-74
2022/08/26 00:59:38;;;;;;;7.75;2.50;;;;;;;;;;7388339;19;20011;-75
2022/08/26 01:02:04;;;;;;;4.43;2.50;;;;;;;;;;7382699;19;20481;-72
2022/08/26 01:04:34;;;;;;;5.47;2.78;;;;;;;;;;7386550;19;20412;-74
2022/08/26 01:07:00;;;;;;;4.47;2.13;;;;;;;;;;7385471;19;19998;-74
2022/08/26 01:09:26;;;;;;;4.22;2.25;;;;;;;;;;7387219;19;20009;-73
2022/08/26 01:11:55;;;;;;;5.43;2.50;;;;;;;;;;7386435;19;20007;-74
2022/08/26 01:14:21;;;;;;;3.92;2.47;;;;;;;;;;7387341;19;19991;-73
2022/08/26 01:16:47;;;;;;;4.40;2.53;;;;;;;;;;7386149;19;19995;-74
2022/08/26 01:19:39;;;;;;;5.13;2.67;;;;;;;;;;7385512;19;20002;-74
2022/08/26 01:22:08;;;;;;;11.93;3.22;;;;;;;;;;7386201;19;19999;-73
2022/08/26 01:24:36;;;;;;;4.88;2.50;;;;;;;;;;7387141;19;20069;-74
2022/08/26 01:27:05;;;;;;;3.65;2.25;;;;;;;;;;7384431;19;20024;-74
2022/08/26 01:29:33;;;;;;;4.90;2.45;;;;;;;;;;7386948;19;20002;-74
2022/08/26 01:31:58;;;;;;;3.95;2.38;;;;;;;;;;7385940;19;20330;-74
2022/08/26 01:34:29;;;;;;;3.50;2.10;;;;;;;;;;7386775;19;19999;-75
2022/08/26 01:37:01;;;;;;;3.58;2.17;;;;;;;;;;7384304;19;20015;-73
2022/08/26 01:39:29;;;;;;;5.45;2.47;;;;;;;;;;7386392;19;19999;-73
2022/08/26 01:41:56;;;;;;;4.05;2.42;;;;;;;;;;7385316;19;20002;-74
2022/08/26 01:44:25;;;;;;;4.80;2.58;;;;;;;;;;7386295;19;19999;-75
2022/08/26 01:46:52;;;;;;;4.50;2.47;;;;;;;;;;7381958;19;19999;-75
2022/08/26 01:49:19;;;;;;;3.90;2.33;;;;;;;;;;7385993;19;20402;-74
2022/08/26 01:51:46;;;;;;;5.45;2.67;;;;;;;;;;7389417;19;20007;-74
2022/08/26 01:54:12;;;;;;;5.50;2.22;;;;;;;;;;7393634;19;20001;-74
2022/08/26 01:56:38;;;;;;;5.38;2.38;;;;;;;;;;7392430;19;20033;-72
2022/08/26 01:59:07;;;;;;;5.22;2.47;;;;;;;;;;7391666;19;19999;-73
2022/08/26 02:01:33;;;;;;;4.03;2.53;;;;;;;;;;7392234;19;20066;-73
2022/08/26 02:04:14;;;;;;;4.30;2.70;;;;;;;;;;7393752;19;20058;-74
2022/08/26 02:06:41;;;;;;;5.85;2.97;;;;;;;;;;7391117;19;20019;-73
2022/08/26 02:09:07;;;;;;;4.60;2.60;;;;;;;;;;7393188;19;19995;-73
2022/08/26 02:11:33;;;;;;;6.57;2.75;;;;;;;;;;7390404;19;20009;-74
2022/08/26 02:14:04;;;;;;;4.88;2.28;;;;;;;;;;7393036;19;20113;-74
2022/08/26 02:16:35;;;;;;;4.80;2.42;;;;;;;;;;7392061;19;19999;-74
2022/08/26 02:19:01;;;;;;;4.75;2.13;;;;;;;;;;7393165;19;20005;-75
2022/08/26 02:21:28;;;;;;;4.63;2.38;;;;;;;;;;7392300;19;20028;-73
2022/08/26 02:23:54;;;;;;;4.47;2.22;;;;;;;;;;7393108;19;20343;-74
2022/08/26 02:26:22;;;;;;;4.68;2.67;;;;;;;;;;7390687;19;19990;-74
2022/08/26 02:29:13;;;;;;;5.68;2.60;;;;;;;;;;7393189;19;20460;-74
2022/08/26 02:31:39;;;;;;;5.72;2.50;;;;;;;;;;7389877;19;19996;-74
2022/08/26 02:34:09;;;;;;;4.40;2.60;;;;;;;;;;7397215;19;20390;-74
2022/08/26 02:36:35;;;;;;;5.18;2.65;;;;;;;;;;7389917;19;20001;-74
2022/08/26 02:39:01;;;;;;;3.60;2.20;;;;;;;;;;7390672;19;20002;-74
2022/08/26 02:41:27;;;;;;;5.03;2.42;;;;;;;;;;7391519;19;20059;-74
2022/08/26 02:43:52;;;;;;;3.70;2.35;;;;;;;;;;7392618;19;20066;-73
2022/08/26 02:46:18;;;;;;;5.38;2.63;;;;;;;;;;7390324;19;19999;-73
2022/08/26 02:48:43;;;;;;;5.20;2.58;;;;;;;;;;7392431;19;20020;-73
2022/08/26 02:51:10;;;;;;;4.13;2.20;;;;;;;;;;7393411;19;19998;-73
2022/08/26 02:53:35;;;;;;;3.33;2.10;;;;;;;;;;7390448;19;20460;-74
2022/08/26 02:56:01;;;;;;;3.95;2.42;;;;;;;;;;7390928;19;19997;-74
2022/08/26 02:58:26;;;;;;;8.02;2.50;;;;;;;;;;7392260;19;19997;-74
2022/08/26 03:00:52;;;;;;;4.30;2.47;;;;;;;;;;7391965;19;20821;-73
2022/08/26 03:03:18;;;;;;;4.85;2.00;;;;;;;;;;7388425;19;20005;-73
2022/08/26 03:05:43;;;;;;;5.57;2.85;;;;;;;;;;7390465;19;19999;-74
2022/08/26 03:08:14;;;;;;;7.90;2.55;;;;;;;;;;7392043;19;19998;-74
2022/08/26 03:10:39;;;;;;;3.63;2.20;;;;;;;;;;7391886;19;20468;-73
2022/08/26 03:13:05;;;;;;;4.47;2.30;;;;;;;;;;7392007;19;19998;-74
2022/08/26 03:15:31;;;;;;;4.47;2.50;;;;;;;;;;7390715;19;20001;-73
2022/08/26 03:17:56;;;;;;;6.10;2.40;;;;;;;;;;7391581;19;20008;-73
2022/08/26 03:20:22;;;;;;;5.72;2.70;;;;;;;;;;7391371;19;20012;-73
2022/08/26 03:22:50;;;;;;;4.65;2.63;;;;;;;;;;7388947;19;20395;-74
2022/08/26 03:25:16;;;;;;;5.18;2.63;;;;;;;;;;7389888;19;20014;-73
2022/08/26 03:27:41;;;;;;;3.00;2.17;;;;;;;;;;7389133;19;19999;-73
2022/08/26 03:32:52;;;;;;;4.07;2.50;;;;;;;;;;7389033;19;20002;-74
2022/08/26 03:35:18;;;;;;;6.05;2.78;;;;;;;;;;7389744;19;19991;-74
2022/08/26 03:37:43;;;;;;;4.53;2.20;;;;;;;;;;7393613;19;19995;-73
2022/08/26 03:40:10;;;;;;;4.32;2.50;;;;;;;;;;7390804;19;20755;-73
2022/08/26 03:42:38;;;;;;;7.57;2.58;;;;;;;;;;7389225;19;20412;-73
2022/08/26 03:45:06;;;;;;;4.60;2.58;;;;;;;;;;7387966;19;20047;-74
2022/08/26 03:47:32;;;;;;;4.55;2.42;;;;;;;;;;7388426;19;20002;-74
2022/08/26 03:49:58;;;;;;;3.90;2.40;;;;;;;;;;7388313;19;20007;-74
2022/08/26 03:52:26;;;;;;;4.93;2.78;;;;;;;;;;7386396;19;20031;-74
2022/08/26 03:54:51;;;;;;;6.03;2.60;;;;;;;;;;7390669;19;20082;-74
2022/08/26 03:57:16;;;;;;;5.90;2.92;;;;;;;;;;7387257;19;20366;-74
2022/08/26 03:59:42;;;;;;;4.82;2.60;;;;;;;;;;7388870;19;20664;-72
2022/08/26 04:02:07;;;;;;;3.67;2.35;;;;;;;;;;7388228;19;20010;-74
2022/08/26 04:04:33;;;;;;;4.18;2.42;;;;;;;;;;7388183;19;20518;-75
2022/08/26 04:06:59;;;;;;;4.43;2.20;;;;;;;;;;7385158;19;20007;-74
2022/08/26 04:09:26;;;;;;;3.20;2.10;;;;;;;;;;7388181;19;20013;-75
2022/08/26 04:11:52;;;;;;;4.95;2.67;;;;;;;;;;7388391;19;20040;-73
2022/08/26 04:14:20;;;;;;;4.18;2.25;;;;;;;;;;7388789;19;20007;-74
2022/08/26 04:16:46;;;;;;;4.32;2.38;;;;;;;;;;7388286;19;19999;-73
2022/08/26 04:19:14;;;;;;;5.78;2.40;;;;;;;;;;7389768;19;20028;-74
2022/08/26 04:21:40;;;;;;;6.13;2.83;;;;;;;;;;7388722;19;20015;-73
2022/08/26 04:24:07;;;;;;;4.18;2.20;;;;;;;;;;7389399;19;19998;-73
2022/08/26 04:26:36;;;;;;;4.82;2.50;;;;;;;;;;7387429;19;20002;-73
2022/08/26 04:29:06;;;;;;;5.65;2.83;;;;;;;;;;7389186;19;20006;-73
2022/08/26 04:31:34;;;;;;;3.58;2.47;;;;;;;;;;7390159;19;20011;-73
2022/08/26 04:33:59;;;;;;;3.35;2.08;;;;;;;;;;7389851;19;19995;-75
2022/08/26 04:36:24;;;;;;;4.20;2.03;;;;;;;;;;7392893;19;20074;-74
2022/08/26 04:38:50;;;;;;;4.40;2.22;;;;;;;;;;7387180;19;20031;-74
2022/08/26 04:41:16;;;;;;;4.80;2.40;;;;;;;;;;7391174;19;19995;-74
2022/08/26 04:43:42;;;;;;;4.28;2.17;;;;;;;;;;7392632;19;20024;-74
2022/08/26 04:46:10;;;;;;;4.10;2.58;;;;;;;;;;7390550;19;19997;-74
2022/08/26 04:48:35;;;;;;;3.97;2.20;;;;;;;;;;7392394;19;20005;-74
2022/08/26 04:51:00;;;;;;;3.65;2.30;;;;;;;;;;7390769;19;20022;-72
2022/08/26 04:53:27;;;;;;;4.20;2.30;;;;;;;;;;7392904;19;20457;-73
2022/08/26 04:55:52;;;;;;;3.45;2.30;;;;;;;;;;7388973;19;20002;-74
2022/08/26 04:58:20;;;;;;;6.45;2.60;;;;;;;;;;7392278;19;19994;-73
2022/08/26 05:00:50;;;;;;;3.35;2.15;;;;;;;;;;7388775;19;20497;-72
2022/08/26 05:03:16;;;;;;;4.25;2.33;;;;;;;;;;7391260;19;20012;-74
2022/08/26 05:05:42;;;;;;;3.53;2.42;;;;;;;;;;7387862;19;20007;-74
2022/08/26 05:08:09;;;;;;;5.20;3.35;;;;;;;;;;7385837;19;20003;-73
2022/08/26 05:10:43;;;;;;;4.60;2.67;;;;;;;;;;7388918;19;20011;-73
2022/08/26 05:13:09;;;;;;;4.05;2.25;;;;;;;;;;7389088;19;20006;-73
2022/08/26 05:15:35;;;;;;;4.25;2.33;;;;;;;;;;7387446;19;20002;-75
2022/08/26 05:18:05;;;;;;;6.25;2.28;;;;;;;;;;7388578;19;20366;-75
2022/08/26 05:20:31;;;;;;;4.57;2.57;;;;;;;;;;7387693;19;20662;-74
2022/08/26 05:22:59;;;;;;;5.47;2.80;;;;;;;;;;7386991;19;20010;-76
2022/08/26 05:25:25;;;;;;;4.70;2.53;;;;;;;;;;7382668;19;20016;-77
2022/08/26 05:27:50;;;;;;;21.90;4.80;;;;;;;;;;7396096;19;20010;-77
2022/08/26 05:30:16;;;;;;;22.20;6.30;;;;;;;;;;7399273;19;19997;-77
2022/08/26 05:32:42;;;;;;;9.23;3.65;;;;;;;;;;7396823;19;20024;-77
2022/08/26 05:35:08;;;;;;;7.70;2.80;;;;;;;;;;7394467;19;19994;-77
2022/08/26 05:37:33;;;;;;;5.43;2.80;;;;;;;;;;7398821;19;20441;-77
2022/08/26 05:40:01;;;;;;;4.75;2.67;;;;;;;;;;7397760;19;20002;-77
2022/08/26 05:42:26;;;;;;;5.70;2.50;;;;;;;;;;7395829;19;20491;-77
2022/08/26 05:44:52;;;;;;;13.07;7.07;;;;;;;;;;7398960;19;20104;-77
2022/08/26 05:47:18;;;;;;;7.57;3.80;;;;;;;;;;7392383;19;20003;-77
2022/08/26 05:49:44;;;;;;;6.88;3.47;;;;;;;;;;7396813;19;20468;-76
2022/08/26 05:52:09;;;;;;;4.53;2.75;;;;;;;;;;7396464;19;20023;-77
2022/08/26 05:54:37;;;;;;;4.72;2.67;;;;;;;;;;7396691;19;20006;-76
2022/08/26 05:57:03;;;;;;;4.40;2.60;;;;;;;;;;7396359;19;20002;-76
2022/08/26 05:59:28;;;;;;;4.90;2.80;;;;;;;;;;7396057;19;20002;-77
2022/08/26 06:01:54;;;;;;;4.00;2.55;;;;;;;;;;7394043;19;20524;-77
2022/08/26 06:04:19;;;;;;;5.32;2.25;;;;;;;;;;7397886;19;20003;-76
2022/08/26 06:06:44;;;;;;;4.57;2.45;;;;;;;;;;7394768;19;19995;-77
2022/08/26 06:09:18;;;;;;;6.13;2.70;;;;;;;;;;7396799;19;19998;-77
2022/08/26 06:11:44;;;;;;;4.47;2.45;;;;;;;;;;7390808;19;20449;-77
2022/08/26 06:14:09;;;;;;;5.03;2.50;;;;;;;;;;7394793;19;20002;-77
2022/08/26 06:16:38;;;;;;;5.95;2.75;;;;;;;;;;7396063;19;19998;-77
2022/08/26 06:19:04;;;;;;;4.97;2.65;;;;;;;;;;7396967;19;19998;-75
2022/08/26 06:21:32;;;;;;;8.20;2.70;;;;;;;;;;7394112;19;20006;-76
2022/08/26 06:26:51;;;;;;;6.68;2.80;;;;;;;;;;7381835;19;20530;-73
2022/08/26 06:29:18;;;;;;;6.72;2.70;;;;;;;;;;7390308;19;20010;-75
2022/08/26 06:31:43;;;;;;;5.30;2.83;;;;;;;;;;7389541;19;20014;-74
2022/08/26 06:34:09;;;;;;;4.95;2.90;;;;;;;;;;7387853;19;20093;-75
2022/08/26 06:36:34;;;;;;;5.35;2.90;;;;;;;;;;7385823;19;20010;-76
2022/08/26 06:39:06;;;;;;;10.00;3.53;;;;;;;;;;7383690;19;20014;-77
2022/08/26 06:41:32;;;;;;;5.22;2.90;;;;;;;;;;7386795;19;20024;-78
2022/08/26 06:43:59;;;;;;;6.05;3.03;;;;;;;;;;7391523;19;20438;-77
2022/08/26 06:46:25;;;;;;;6.10;3.13;;;;;;;;;;7389356;19;20007;-76
2022/08/26 06:48:52;;;;;;;5.15;2.47;;;;;;;;;;7391912;19;20017;-76
2022/08/26 06:51:21;;;;;;;5.50;2.85;;;;;;;;;;7388005;19;20026;-75
2022/08/26 06:53:48;;;;;;;5.60;3.73;;;;;;;;;;7390038;19;20488;-76
2022/08/26 06:56:17;;;;;;;6.85;3.30;;;;;;;;;;7387210;19;20003;-77
2022/08/26 06:58:43;;;;;;;5.03;3.10;;;;;;;;;;7390816;19;20031;-76
2022/08/26 07:01:23;;;;;;;8.23;3.00;;;;;;;;;;7387825;19;20006;-76
2022/08/26 07:03:51;;;;;;;6.53;2.83;;;;;;;;;;7391733;19;19998;-75
2022/08/26 07:06:18;;;;;;;5.35;2.53;;;;;;;;;;7387672;19;20552;-75
2022/08/26 07:08:48;;;;;;;5.15;2.80;;;;;;;;;;7389161;19;20023;-75
2022/08/26 07:11:14;;;;;;;5.45;2.80;;;;;;;;;;7385526;19;20025;-75
2022/08/26 07:13:39;;;;;;;4.32;2.67;;;;;;;;;;7390785;19;20002;-74
2022/08/26 07:16:11;;;;;;;6.93;2.97;;;;;;;;;;7389075;19;20006;-75
2022/08/26 07:18:37;;;;;;;4.90;2.70;;;;;;;;;;7390562;19;20367;-76
2022/08/26 07:21:05;;;;;;;5.40;2.60;;;;;;;;;;7388722;19;20017;-76
2022/08/26 07:23:31;;;;;;;5.38;2.80;;;;;;;;;;7392023;19;20003;-75
2022/08/26 07:25:56;;;;;;;7.57;3.33;;;;;;;;;;7387227;19;20066;-74
2022/08/26 07:28:22;;;;;;;3.90;2.35;;;;;;;;;;7390064;19;20010;-75
2022/08/26 07:30:47;;;;;;;5.07;2.83;;;;;;;;;;7391270;19;20023;-74
2022/08/26 07:33:12;;;;;;;5.85;2.95;;;;;;;;;;7389151;19;20102;-76
2022/08/26 07:35:38;;;;;;;5.22;3.30;;;;;;;;;;7388977;19;20092;-76
2022/08/26 07:38:03;;;;;;;9.15;2.88;;;;;;;;;;7389092;19;20015;-75
2022/08/26 07:40:29;;;;;;;5.07;3.03;;;;;;;;;;7388746;19;20062;-76
2022/08/26 07:42:56;;;;;;;5.80;3.50;;;;;;;;;;7389183;19;20480;-76
2022/08/26 07:45:22;;;;;;;5.25;3.05;;;;;;;;;;7387367;19;20002;-77
2022/08/26 07:47:47;;;;;;;5.75;3.13;;;;;;;;;;7389144;19;20027;-77
2022/08/26 07:50:13;;;;;;;6.40;3.00;;;;;;;;;;7385340;19;19999;-75
2022/08/26 07:52:38;;;;;;;5.55;3.53;;;;;;;;;;7385087;19;20349;-75
2022/08/26 07:55:06;;;;;;;7.35;3.13;;;;;;;;;;7382134;19;20011;-76
2022/08/26 07:57:32;;;;;;;5.20;3.30;;;;;;;;;;7383187;19;20009;-76
2022/08/26 07:59:58;;;;;;;5.03;3.40;;;;;;;;;;7382835;19;20580;-76
2022/08/26 08:02:25;;;;;;;5.63;3.50;;;;;;;;;;7381715;19;20010;-75
2022/08/26 08:04:52;;;;;;;8.52;3.20;;;;;;;;;;7386622;19;20013;-76
2022/08/26 08:07:17;;;;;;;4.70;2.75;;;;;;;;;;7381880;19;20006;-76
2022/08/26 08:09:42;;;;;;;5.57;3.28;;;;;;;;;;7388822;19;20035;-75
2022/08/26 08:12:08;;;;;;;5.40;3.53;;;;;;;;;;7384811;19;20080;-75
2022/08/26 08:14:35;;;;;;;4.65;3.08;;;;;;;;;;7387557;19;20350;-75
2022/08/26 08:17:02;;;;;;;5.28;3.00;;;;;;;;;;7383951;19;20010;-76
2022/08/26 08:19:27;;;;;;;7.13;3.75;;;;;;;;;;7390897;19;20033;-74
2022/08/26 08:21:52;;;;;;;5.50;3.30;;;;;;;;;;7389686;19;20002;-75
2022/08/26 08:24:18;;;;;;;4.63;3.03;;;;;;;;;;7389380;19;19998;-74
2022/08/26 08:26:44;;;;;;;5.32;3.20;;;;;;;;;;7391098;19;20020;-74
2022/08/26 08:29:10;;;;;;;4.22;2.78;;;;;;;;;;7390050;19;20006;-74
2022/08/26 08:31:35;;;;;;;4.93;2.90;;;;;;;;;;7390164;19;20019;-74
2022/08/26 08:34:01;;;;;;;6.65;3.70;;;;;;;;;;7391329;19;20005;-74
2022/08/26 08:36:26;;;;;;;4.97;3.20;;;;;;;;;;7391344;19;20027;-75
2022/08/26 08:38:52;;;;;;;5.15;3.35;;;;;;;;;;7393435;19;20038;-75
2022/08/26 08:41:23;;;;;;;5.70;3.13;;;;;;;;;;7388928;19;20005;-75
2022/08/26 08:43:50;;;;;;;6.38;3.47;;;;;;;;;;7393279;19;20037;-76
2022/08/26 08:46:16;;;;;;;6.78;3.65;;;;;;;;;;7388103;19;20028;-76
2022/08/26 08:48:45;;;;;;;5.47;3.40;;;;;;;;;;7392433;19;19998;-76
2022/08/26 08:51:38;;;;;;;6.35;3.47;;;;;;;;;;7389581;19;20013;-76
2022/08/26 08:54:05;;;;;;;4.97;3.33;;;;;;;;;;7392092;19;20017;-75
2022/08/26 08:56:36;;;;;;;5.22;3.38;;;;;;;;;;7390409;19;20006;-76
2022/08/26 08:59:26;;;;;;;5.43;3.35;;;;;;;;;;7389074;19;20442;-75
2022/08/26 09:02:01;;;;;;;4.35;3.15;;;;;;;;;;7386968;19;20007;-76
2022/08/26 09:04:51;;;;;;;7.47;3.50;;;;;;;;;;7391523;19;20027;-76
2022/08/26 09:07:21;;;;;;;7.03;4.10;;;;;;;;;;7383300;19;20359;-77
2022/08/26 09:10:04;;;;;;;6.40;3.75;;;;;;;;;;7383805;19;20445;-77
2022/08/26 09:12:32;;;;;;;9.80;3.92;;;;;;;;;;7385171;19;20061;-76
2022/08/26 09:15:04;;;;;;;7.38;4.50;;;;;;;;;;7386696;19;20003;-76
2022/08/26 09:18:08;;;;;;;7.63;3.85;;;;;;;;;;7381130;19;20006;-71
2022/08/26 09:20:52;;;;;;;6.00;4.20;;;;;;;;;;7385635;19;20440;-71
2022/08/26 09:23:18;;;;;;;7.05;4.40;;;;;;;;;;7388268;19;20003;-71
2022/08/26 09:25:58;;;;;;;6.35;3.75;;;;;;;;;;7387962;19;20469;-71
2022/08/26 09:28:25;;;;;;;7.07;4.10;;;;;;;;;;7390984;19;20006;-71
2022/08/26 09:31:29;;;;;;;6.65;4.32;;;;;;;;;;7389607;19;20003;-70
2022/08/26 09:34:19;;;;;;;5.75;3.40;;;;;;;;;;7388110;19;20013;-71
2022/08/26 09:36:57;;;;;;;5.63;3.88;;;;;;;;;;7389851;19;20006;-72
2022/08/26 09:39:35;;;;;;;6.32;4.22;;;;;;;;;;7388003;19;20019;-71
2022/08/26 09:42:18;;;;;;;9.18;4.45;;;;;;;;;;7389003;19;20352;-71
2022/08/26 09:44:58;;;;;;;7.78;4.47;;;;;;;;;;7391233;19;20023;-71
2022/08/26 09:47:29;;;;;;;;;;;;;;;;;;7384499;19;20003;-70
2022/08/26 09:50:25;;;;;;;6.25;3.88;;;;;;;;;;7389478;19;19923;-71
2022/08/26 09:53:08;;;;;;;6.05;3.80;;;;;;;;;;7383881;19;20002;-70
2022/08/26 09:55:36;;;;;;;7.78;4.40;;;;;;;;;;7387167;19;20024;-71
2022/08/26 09:58:02;;;;;;;7.53;4.30;;;;;;;;;;7389452;19;20423;-71
2022/08/26 10:00:35;;;;;;;9.13;4.22;;;;;;;;;;7390169;19;20026;-71
2022/08/26 10:03:04;;;;;;;9.23;4.95;;;;;;;;;;7386672;19;20469;-71
2022/08/26 10:06:00;;;;;;;7.93;5.28;;;;;;;;;;7386940;19;20410;-70
2022/08/26 10:08:45;;;;;;;9.23;4.80;;;;;;;;;;7384132;19;20014;-71
2022/08/26 10:11:43;;;;;;;6.50;4.38;;;;;;;;;;7383061;19;20015;-71
2022/08/26 10:14:17;;;;;;;9.35;4.88;;;;;;;;;;7393124;19;19995;-70
2022/08/26 10:17:27;;;;;;;6.88;4.53;;;;;;;;;;7391232;19;20009;-71
2022/08/26 10:19:55;;;;;;;;;;;;;;;;;;7387247;19;19998;-71
2022/08/26 10:22:58;;;;;;;8.30;5.22;;;;;;;;;;7387243;19;19939;-71
2022/08/26 10:25:30;;;;;;;7.88;4.97;;;;;;;;;;7391886;19;19999;-72
2022/08/26 10:28:18;;;;;;;6.60;3.60;;;;;;;;;;7392551;19;20003;-70
2022/08/26 10:30:51;;;;;;;7.30;4.82;;;;;;;;;;7396123;19;20414;-71
2022/08/26 10:33:17;;;;;;;10.30;5.30;;;;;;;;;;7382003;19;20030;-70
2022/08/26 10:35:51;;;;;;;8.18;4.88;;;;;;;;;;7386582;19;20034;-70
2022/08/26 10:38:22;;;;;;;8.68;4.80;;;;;;;;;;7389449;19;20433;-70
2022/08/26 10:41:03;;;;;;;7.97;4.40;;;;;;;;;;7387921;19;20026;-72
2022/08/26 10:43:35;;;;;;;7.65;4.75;;;;;;;;;;7388784;19;19995;-71
2022/08/26 10:46:08;;;;;;;7.45;4.63;;;;;;;;;;7385190;19;20018;-70
2022/08/26 10:48:40;;;;;;;7.28;4.32;;;;;;;;;;7389038;19;20010;-71
2022/08/26 10:51:07;;;;;;;6.30;4.13;;;;;;;;;;7390485;19;20484;-71
2022/08/26 10:53:44;;;;;;;6.60;4.00;;;;;;;;;;7392313;19;20005;-72
2022/08/26 10:56:47;;;;;;;8.38;4.93;;;;;;;;;;7387736;19;20010;-72
2022/08/26 10:59:42;;;;;;;7.03;4.63;;;;;;;;;;7390761;19;20027;-72
2022/08/26 11:02:36;;;;;;;8.20;5.00;;;;;;;;;;7389872;19;20003;-73
2022/08/26 11:05:09;;;;;;;6.65;4.63;;;;;;;;;;7387989;19;19998;-71
2022/08/26 11:07:44;;;;;;;9.82;5.45;;;;;;;;;;7387012;19;20048;-70
2022/08/26 11:10:19;;;;;;;8.93;4.60;;;;;;;;;;7390077;19;20007;-71
2022/08/26 11:12:52;;;;;;;6.97;4.88;;;;;;;;;;7387346;19;20002;-72
2022/08/26 11:15:20;;;;;;;8.95;5.30;;;;;;;;;;7388571;19;20001;-71
2022/08/26 11:17:45;;;;;;;12.77;5.93;;;;;;;;;;7387499;19;20474;-70
2022/08/26 11:20:29;;;;;;;13.38;5.97;;;;;;;;;;7390701;19;20070;-70
2022/08/26 11:23:15;;;;;;;7.50;5.03;;;;;;;;;;7384708;19;20024;-70
2022/08/26 11:26:06;;;;;;;8.95;4.93;;;;;;;;;;7385008;19;20015;-71
2022/08/26 11:28:40;;;;;;;10.48;5.43;;;;;;;;;;7394812;19;20002;-70
2022/08/26 11:31:10;;;;;;;10.48;6.18;;;;;;;;;;7390919;19;20006;-71
2022/08/26 11:33:58;;;;;;;9.80;4.75;;;;;;;;;;7394573;19;20006;-71
2022/08/26 11:36:33;;;;;;;7.57;4.68;;;;;;;;;;7394231;19;20002;-71
2022/08/26 11:39:00;;;;;;;9.25;5.13;;;;;;;;;;7388846;19;20006;-71
2022/08/26 11:41:28;;;;;;;8.48;5.05;;;;;;;;;;7389530;19;20003;-71
2022/08/26 11:43:56;;;;;;;6.65;4.45;;;;;;;;;;7393474;19;20028;-71
2022/08/26 11:46:27;;;;;;;11.52;5.75;;;;;;;;;;7393678;19;20267;-72
2022/08/26 11:49:00;;;;;;;8.15;4.80;;;;;;;;;;7394146;19;20524;-71
2022/08/26 11:51:26;;;;;;;8.55;5.22;;;;;;;;;;7389518;19;20397;-70
2022/08/26 11:54:14;;;;;;;6.93;5.03;;;;;;;;;;7390900;19;20021;-73
2022/08/26 11:56:42;;;;;;;10.73;5.18;;;;;;;;;;7392710;19;20002;-71
2022/08/26 11:59:11;;;;;;;9.52;5.20;;;;;;;;;;7390690;19;20511;-72
2022/08/26 12:01:41;;;;;;;8.30;5.70;;;;;;;;;;7387993;19;19999;-72
2022/08/26 12:04:10;;;;;;;7.95;5.07;;;;;;;;;;7392597;19;20006;-71
2022/08/26 12:06:46;;;;;;;8.90;5.43;;;;;;;;;;7390148;19;20023;-71
2022/08/26 12:09:27;;;;;;;7.50;5.85;;;;;;;;;;7391020;19;20002;-72
2022/08/26 12:12:27;;;;;;;7.97;5.38;;;;;;;;;;7391588;19;20401;-71
2022/08/26 12:15:10;;;;;;;8.73;6.05;;;;;;;;;;7393491;19;20005;-69
2022/08/26 12:17:38;;;;;;;10.48;6.10;;;;;;;;;;7388205;19;20003;-71
2022/08/26 12:20:05;;;;;;;8.63;6.47;;;;;;;;;;7391174;19;20003;-69
2022/08/26 12:22:34;;;;;;;8.50;5.53;;;;;;;;;;7391365;19;20026;-70
2022/08/26 12:25:04;;;;;;;9.57;5.95;;;;;;;;;;7389779;19;20005;-69
2022/08/26 12:27:38;;;;;;;7.78;5.82;;;;;;;;;;7388208;19;20029;-70
2022/08/26 12:30:12;;;;;;;10.80;7.13;;;;;;;;;;7391038;19;20007;-71
2022/08/26 12:32:43;;;;;;;7.93;6.05;;;;;;;;;;7390925;19;20011;-70
2022/08/26 12:35:11;;;;;;;10.05;6.45;;;;;;;;;;7389533;19;20345;-70
2022/08/26 12:37:41;;;;;;;8.85;5.88;;;;;;;;;;7387397;19;20007;-71
2022/08/26 12:40:32;;;;;;;9.80;6.18;;;;;;;;;;7389807;19;20003;-71
2022/08/26 12:43:00;;;;;;;8.68;5.80;;;;;;;;;;7387304;19;20055;-71
2022/08/26 12:45:43;;;;;;;8.65;6.10;;;;;;;;;;7388341;19;20006;-71
2022/08/26 12:48:13;;;;;;;8.30;5.63;;;;;;;;;;7385458;19;20131;-69
2022/08/26 12:50:46;;;;;;;9.45;6.40;;;;;;;;;;7390931;19;20023;-69
2022/08/26 12:53:27;;;;;;;8.70;5.95;;;;;;;;;;7389020;19;20009;-70
2022/08/26 12:56:03;;;;;;;8.32;6.03;;;;;;;;;;7386704;19;19998;-70
2022/08/26 12:58:38;;;;;;;7.95;5.13;;;;;;;;;;7388919;19;20013;-70
2022/08/26 13:01:03;;;;;;;9.30;4.70;;;;;;;;;;7386336;19;20054;-70
2022/08/26 13:03:44;;;;;;;7.55;5.28;;;;;;;;;;7377859;19;20027;-70
2022/08/26 13:06:15;;;;;;;9.27;5.65;;;;;;;;;;7385197;19;19999;-70
2022/08/26 13:08:55;;;;;;;10.70;7.22;;;;;;;;;;7380545;19;20014;-70
2022/08/26 13:11:37;;;;;;;9.20;5.47;;;;;;;;;;7385990;19;20520;-69
2022/08/26 13:14:12;;;;;;;7.35;4.78;;;;;;;;;;7383663;19;20483;-70
2022/08/26 13:16:40;;;;;;;8.38;5.05;;;;;;;;;;7382809;19;19998;-69
2022/08/26 13:19:11;;;;;;;6.70;4.53;;;;;;;;;;7382950;19;20007;-70
2022/08/26 13:21:46;;;;;;;8.73;5.57;;;;;;;;;;7385425;19;20010;-71
2022/08/26 13:24:18;;;;;;;9.63;5.80;;;;;;;;;;7384746;19;20009;-71
2022/08/26 13:26:45;;;;;;;10.40;5.88;;;;;;;;;;7383624;19;20476;-71
2022/08/26 13:29:11;;;;;;;8.95;5.03;;;;;;;;;;7386858;19;20014;-72
2022/08/26 13:31:39;;;;;;;9.93;4.80;;;;;;;;;;7383303;19;20007;-73
2022/08/26 13:34:06;;;;;;;7.38;4.53;;;;;;;;;;7385978;19;20005;-74
2022/08/26 13:36:32;;;;;;;7.80;5.05;;;;;;;;;;7383947;19;20009;-73
2022/08/26 13:38:57;;;;;;;8.88;4.85;;;;;;;;;;7386393;19;20006;-72
2022/08/26 13:41:23;;;;;;;7.82;5.00;;;;;;;;;;7385614;19;20014;-74
2022/08/26 13:43:48;;;;;;;11.25;6.15;;;;;;;;;;7385798;19;20007;-73
2022/08/26 13:46:13;;;;;;;16.42;7.63;;;;;;;;;;7383505;19;20010;-70
2022/08/26 13:48:39;;;;;;;10.55;5.88;;;;;;;;;;7388206;19;20473;-72
2022/08/26 13:51:05;;;;;;;11.10;5.70;;;;;;;;;;7393839;19;20465;-72
2022/08/26 13:53:30;;;;;;;9.60;6.22;;;;;;;;;;7393698;19;20520;-72
2022/08/26 13:55:58;;;;;;;10.70;6.32;;;;;;;;;;7391500;19;20006;-72
2022/08/26 13:58:24;;;;;;;13.13;6.82;;;;;;;;;;7392737;19;20082;-72
2022/08/26 14:00:49;;;;;;;9.73;6.40;;;;;;;;;;7391331;19;20025;-72
2022/08/26 14:03:15;;;;;;;11.50;6.82;;;;;;;;;;7390691;19;20007;-72
2022/08/26 14:05:40;;;;;;;9.70;6.40;;;;;;;;;;7392551;19;19998;-73
2022/08/26 14:08:05;;;;;;;9.52;6.25;;;;;;;;;;7387901;19;20093;-72
2022/08/26 14:10:31;;;;;;;9.00;5.80;;;;;;;;;;7391494;19;20026;-73
2022/08/26 14:12:57;;;;;;;8.75;6.50;;;;;;;;;;7387061;19;20043;-71
2022/08/26 14:15:23;;;;;;;9.50;6.15;;;;;;;;;;7390950;19;19999;-72
2022/08/26 14:17:48;;;;;;;9.70;6.43;;;;;;;;;;7384442;19;20281;-71
2022/08/26 14:20:19;;;;;;;9.13;6.53;;;;;;;;;;7391277;19;20014;-72
2022/08/26 14:22:44;;;;;;;10.82;7.05;;;;;;;;;;7382465;19;20002;-73
2022/08/26 14:25:12;;;;;;;9.82;6.75;;;;;;;;;;7390589;19;20014;-72
2022/08/26 14:27:38;;;;;;;9.35;6.57;;;;;;;;;;7387096;19;20002;-74
2022/08/26 14:30:04;;;;;;;11.45;7.35;;;;;;;;;;7392997;19;20013;-72
2022/08/26 14:32:31;;;;;;;10.75;6.72;;;;;;;;;;7386469;19;20369;-72
2022/08/26 14:34:56;;;;;;;11.00;6.65;;;;;;;;;;7389486;19;20354;-73
2022/08/26 14:37:22;;;;;;;8.73;6.07;;;;;;;;;;7390345;19;20041;-72
2022/08/26 14:39:47;;;;;;;8.43;6.07;;;;;;;;;;7386236;19;20546;-71
2022/08/26 14:42:18;;;;;;;9.35;5.80;;;;;;;;;;7389312;19;20001;-73
2022/08/26 14:44:46;;;;;;;9.18;6.40;;;;;;;;;;7388459;19;20003;-73
2022/08/26 14:47:12;;;;;;;7.85;5.85;;;;;;;;;;7387316;19;20007;-74
2022/08/26 14:49:37;;;;;;;10.40;6.82;;;;;;;;;;7387986;19;20486;-74
2022/08/26 14:52:02;;;;;;;10.07;6.32;;;;;;;;;;7387460;19;20006;-74
2022/08/26 14:54:28;;;;;;;10.00;6.22;;;;;;;;;;7388910;19;19995;-75
2022/08/26 14:56:58;;;;;;;9.93;6.38;;;;;;;;;;7389826;19;19998;-75
2022/08/26 14:59:35;;;;;;;9.50;6.35;;;;;;;;;;7390308;19;20028;-74
2022/08/26 15:02:01;;;;;;;9.65;6.28;;;;;;;;;;7390761;19;19998;-74
2022/08/26 15:04:27;;;;;;;11.77;7.35;;;;;;;;;;7391999;19;20010;-75